sensor_id;sensor_type;location;lat;lon;timestamp;pressure;altitude;pressure_sealevel;temperature;humidity
76024;BME280;64719;52.124;6.226;2023-08-24T00:00:33;101983.34;;;17.20;100.00
76024;BME280;64719;52.124;6.226;2023-08-24T00:03:00;101981.25;;;16.94;100.00
76024;BME280;64719;52.124;6.226;2023-08-24T00:05:28;101980.81;;;16.86;100.00
76024;BME280;64719;52.124;6.226;2023-08-24T00:07:54;101974.94;;;16.94;100.00
76024;BME280;64719;52.124;6.226;2023-08-24T00:10:22;101964.94;;;16.88;100.00
76024;BME280;64719;52.124;6.226;2023-08-24T00:12:49;101970.31;;;16.83;100.00
76024;BME280;64719;52.124;6.226;2023-08-24T00:15:16;101957.63;;;16.93;100.00
76024;BME280;64719;52.124;6.226;2023-08-24T00:17:43;101958.63;;;16.87;100.00
76024;BME280;64719;52.124;6.226;2023-08-24T00:20:10;101957.47;;;16.83;100.00
76024;BME280;64719;52.124;6.226;2023-08-24T00:22:38;101956.72;;;16.88;100.00
76024;BME280;64719;52.124;6.226;2023-08-24T00:25:06;101958.09;;;16.74;100.00
76024;BME280;64719;52.124;6.226;2023-08-24T00:27:33;101962.78;;;16.62;100.00
76024;BME280;64719;52.124;6.226;2023-08-24T00:30:02;101955.91;;;16.59;100.00
76024;BME280;64719;52.124;6.226;2023-08-24T00:32:30;101951.38;;;16.53;100.00
76024;BME280;64719;52.124;6.226;2023-08-24T00:34:59;101953.41;;;16.58;100.00
76024;BME280;64719;52.124;6.226;2023-08-24T00:37:26;101956.81;;;16.65;100.00
76024;BME280;64719;52.124;6.226;2023-08-24T00:39:53;101963.13;;;16.65;100.00
76024;BME280;64719;52.124;6.226;2023-08-24T00:42:20;101967.09;;;16.58;100.00
76024;BME280;64719;52.124;6.226;2023-08-24T00:44:48;101963.88;;;16.61;100.00
76024;BME280;64719;52.124;6.226;2023-08-24T00:47:16;101966.38;;;16.62;100.00
76024;BME280;64719;52.124;6.226;2023-08-24T00:49:43;101961.88;;;16.56;100.00
76024;BME280;64719;52.124;6.226;2023-08-24T00:52:10;101963.88;;;16.61;100.00
76024;BME280;64719;52.124;6.226;2023-08-24T00:54:38;101950.34;;;16.71;100.00
76024;BME280;64719;52.124;6.226;2023-08-24T00:57:06;101932.44;;;16.52;100.00
76024;BME280;64719;52.124;6.226;2023-08-24T00:59:32;101924.72;;;16.49;100.00
76024;BME280;64719;52.124;6.226;2023-08-24T01:02:00;101924.72;;;16.49;100.00
76024;BME280;64719;52.124;6.226;2023-08-24T01:04:29;101933.25;;;16.52;100.00
76024;BME280;64719;52.124;6.226;2023-08-24T01:06:56;101943.16;;;16.53;100.00
76024;BME280;64719;52.124;6.226;2023-08-24T01:09:23;101938.59;;;16.59;100.00
76024;BME280;64719;52.124;6.226;2023-08-24T01:11:56;101947.50;;;16.66;100.00
76024;BME280;64719;52.124;6.226;2023-08-24T01:14:33;101951.63;;;16.80;100.00
76024;BME280;64719;52.124;6.226;2023-08-24T01:17:04;101945.16;;;16.86;100.00
76024;BME280;64719;52.124;6.226;2023-08-24T01:19:40;101940.59;;;16.75;100.00
76024;BME280;64719;52.124;6.226;2023-08-24T01:22:18;101930.34;;;16.70;100.00
76024;BME280;64719;52.124;6.226;2023-08-24T01:24:48;101922.03;;;16.65;100.00
76024;BME280;64719;52.124;6.226;2023-08-24T01:27:20;101926.91;;;16.63;100.00
76024;BME280;64719;52.124;6.226;2023-08-24T01:29:47;101935.00;;;16.70;100.00
76024;BME280;64719;52.124;6.226;2023-08-24T01:32:15;101935.59;;;16.72;100.00
76024;BME280;64719;52.124;6.226;2023-08-24T01:34:42;101926.41;;;16.66;100.00
76024;BME280;64719;52.124;6.226;2023-08-24T01:37:08;101919.38;;;16.70;100.00
76024;BME280;64719;52.124;6.226;2023-08-24T01:39:42;101920.75;;;16.56;100.00
76024;BME280;64719;52.124;6.226;2023-08-24T01:42:13;101931.31;;;16.64;100.00
76024;BME280;64719;52.124;6.226;2023-08-24T01:44:47;101936.28;;;16.67;100.00
76024;BME280;64719;52.124;6.226;2023-08-24T01:47:15;101935.88;;;16.59;100.00
76024;BME280;64719;52.124;6.226;2023-08-24T01:49:44;101931.97;;;16.55;100.00
76024;BME280;64719;52.124;6.226;2023-08-24T01:52:11;101928.88;;;16.51;100.00
76024;BME280;64719;52.124;6.226;2023-08-24T01:54:39;101924.31;;;16.57;100.00
76024;BME280;64719;52.124;6.226;2023-08-24T01:57:06;101920.50;;;16.58;100.00
76024;BME280;64719;52.124;6.226;2023-08-24T01:59:32;101917.78;;;16.58;100.00
76024;BME280;64719;52.124;6.226;2023-08-24T02:02:00;101915.09;;;16.63;100.00
76024;BME280;64719;52.124;6.226;2023-08-24T02:04:28;101921.78;;;16.67;100.00
76024;BME280;64719;52.124;6.226;2023-08-24T02:06:54;101934.94;;;16.81;100.00
76024;BME280;64719;52.124;6.226;2023-08-24T02:09:21;101926.22;;;16.84;100.00
76024;BME280;64719;52.124;6.226;2023-08-24T02:11:47;101917.19;;;17.00;100.00
76024;BME280;64719;52.124;6.226;2023-08-24T02:14:14;101915.44;;;16.94;100.00
76024;BME280;64719;52.124;6.226;2023-08-24T02:16:40;101922.00;;;16.93;100.00
76024;BME280;64719;52.124;6.226;2023-08-24T02:19:08;101911.34;;;16.80;100.00
76024;BME280;64719;52.124;6.226;2023-08-24T02:21:35;101921.66;;;16.90;100.00
76024;BME280;64719;52.124;6.226;2023-08-24T02:24:02;101924.97;;;16.92;100.00
76024;BME280;64719;52.124;6.226;2023-08-24T02:26:29;101932.41;;;16.91;100.00
76024;BME280;64719;52.124;6.226;2023-08-24T02:28:56;101935.56;;;17.00;100.00
76024;BME280;64719;52.124;6.226;2023-08-24T02:31:23;101943.53;;;17.01;100.00
76024;BME280;64719;52.124;6.226;2023-08-24T02:33:50;101943.13;;;17.09;100.00
76024;BME280;64719;52.124;6.226;2023-08-24T02:36:17;101947.28;;;17.12;100.00
76024;BME280;64719;52.124;6.226;2023-08-24T02:38:44;101942.16;;;17.15;100.00
76024;BME280;64719;52.124;6.226;2023-08-24T02:41:10;101932.06;;;17.21;100.00
76024;BME280;64719;52.124;6.226;2023-08-24T02:43:39;101929.09;;;17.22;100.00
76024;BME280;64719;52.124;6.226;2023-08-24T02:46:08;101928.94;;;17.29;100.00
76024;BME280;64719;52.124;6.226;2023-08-24T02:48:35;101930.44;;;17.36;100.00
76024;BME280;64719;52.124;6.226;2023-08-24T02:51:03;101927.09;;;17.34;100.00
76024;BME280;64719;52.124;6.226;2023-08-24T02:53:31;101924.19;;;17.24;100.00
76024;BME280;64719;52.124;6.226;2023-08-24T02:55:58;101931.47;;;17.19;100.00
76024;BME280;64719;52.124;6.226;2023-08-24T02:58:25;101936.41;;;17.17;100.00
76024;BME280;64719;52.124;6.226;2023-08-24T03:00:52;101933.97;;;17.20;100.00
76024;BME280;64719;52.124;6.226;2023-08-24T03:03:18;101926.34;;;17.22;100.00
76024;BME280;64719;52.124;6.226;2023-08-24T03:05:53;101906.28;;;17.05;100.00
76024;BME280;64719;52.124;6.226;2023-08-24T03:08:20;101922.09;;;17.15;100.00
76024;BME280;64719;52.124;6.226;2023-08-24T03:10:48;101917.34;;;17.10;100.00
76024;BME280;64719;52.124;6.226;2023-08-24T03:13:15;101913.97;;;17.03;100.00
76024;BME280;64719;52.124;6.226;2023-08-24T03:15:41;101910.78;;;16.95;100.00
76024;BME280;64719;52.124;6.226;2023-08-24T03:18:10;101894.53;;;16.77;100.00
76024;BME280;64719;52.124;6.226;2023-08-24T03:20:38;101897.34;;;16.65;100.00
76024;BME280;64719;52.124;6.226;2023-08-24T03:23:05;101879.91;;;16.55;100.00
76024;BME280;64719;52.124;6.226;2023-08-24T03:25:35;101860.41;;;16.39;100.00
76024;BME280;64719;52.124;6.226;2023-08-24T03:28:04;101850.50;;;16.38;100.00
76024;BME280;64719;52.124;6.226;2023-08-24T03:30:32;101856.22;;;16.49;100.00
76024;BME280;64719;52.124;6.226;2023-08-24T03:32:59;101873.81;;;16.53;100.00
76024;BME280;64719;52.124;6.226;2023-08-24T03:35:26;101882.38;;;16.56;100.00
76024;BME280;64719;52.124;6.226;2023-08-24T03:37:52;101872.97;;;16.52;100.00
76024;BME280;64719;52.124;6.226;2023-08-24T03:40:19;101867.06;;;16.43;100.00
76024;BME280;64719;52.124;6.226;2023-08-24T03:42:46;101864.69;;;16.35;100.00
76024;BME280;64719;52.124;6.226;2023-08-24T03:45:14;101859.81;;;16.37;100.00
76024;BME280;64719;52.124;6.226;2023-08-24T03:47:40;101854.47;;;16.31;100.00
76024;BME280;64719;52.124;6.226;2023-08-24T03:50:07;101852.88;;;16.47;100.00
76024;BME280;64719;52.124;6.226;2023-08-24T03:52:34;101848.00;;;16.49;100.00
76024;BME280;64719;52.124;6.226;2023-08-24T03:55:01;101856.47;;;16.35;100.00
76024;BME280;64719;52.124;6.226;2023-08-24T03:57:27;101855.47;;;16.41;100.00
76024;BME280;64719;52.124;6.226;2023-08-24T03:59:54;101861.22;;;16.40;100.00
76024;BME280;64719;52.124;6.226;2023-08-24T04:02:22;101858.22;;;16.41;100.00
76024;BME280;64719;52.124;6.226;2023-08-24T04:04:50;101854.69;;;16.29;100.00
76024;BME280;64719;52.124;6.226;2023-08-24T04:07:16;101850.19;;;16.23;100.00
76024;BME280;64719;52.124;6.226;2023-08-24T04:09:43;101844.97;;;16.22;100.00
76024;BME280;64719;52.124;6.226;2023-08-24T04:12:10;101841.66;;;16.20;100.00
76024;BME280;64719;52.124;6.226;2023-08-24T04:14:37;101841.31;;;16.16;100.00
76024;BME280;64719;52.124;6.226;2023-08-24T04:17:04;101843.94;;;16.11;100.00
76024;BME280;64719;52.124;6.226;2023-08-24T04:19:32;101836.47;;;16.07;100.00
76024;BME280;64719;52.124;6.226;2023-08-24T04:21:59;101841.59;;;16.03;100.00
76024;BME280;64719;52.124;6.226;2023-08-24T04:24:25;101834.44;;;16.02;100.00
76024;BME280;64719;52.124;6.226;2023-08-24T04:26:52;101831.16;;;16.00;100.00
76024;BME280;64719;52.124;6.226;2023-08-24T04:29:18;101836.38;;;16.02;100.00
76024;BME280;64719;52.124;6.226;2023-08-24T04:31:45;101836.47;;;16.07;100.00
76024;BME280;64719;52.124;6.226;2023-08-24T04:34:11;101821.59;;;16.03;100.00
76024;BME280;64719;52.124;6.226;2023-08-24T04:36:39;101831.94;;;16.01;100.00
76024;BME280;64719;52.124;6.226;2023-08-24T04:39:06;101830.66;;;16.03;100.00
76024;BME280;64719;52.124;6.226;2023-08-24T04:41:32;101839.19;;;16.07;100.00
76024;BME280;64719;52.124;6.226;2023-08-24T04:43:59;101840.03;;;16.07;100.00
76024;BME280;64719;52.124;6.226;2023-08-24T04:46:25;101827.91;;;16.03;100.00
76024;BME280;64719;52.124;6.226;2023-08-24T04:48:52;101823.16;;;15.99;100.00
76024;BME280;64719;52.124;6.226;2023-08-24T04:51:19;101824.34;;;16.03;100.00
76024;BME280;64719;52.124;6.226;2023-08-24T04:53:47;101830.72;;;16.08;100.00
76024;BME280;64719;52.124;6.226;2023-08-24T04:56:13;101827.25;;;16.13;100.00
76024;BME280;64719;52.124;6.226;2023-08-24T04:58:52;101816.00;;;16.09;100.00
76024;BME280;64719;52.124;6.226;2023-08-24T05:01:19;101822.50;;;16.20;100.00
76024;BME280;64719;52.124;6.226;2023-08-24T05:03:45;101821.66;;;16.19;100.00
76024;BME280;64719;52.124;6.226;2023-08-24T05:06:12;101823.78;;;16.17;100.00
76024;BME280;64719;52.124;6.226;2023-08-24T05:08:38;101819.94;;;16.30;100.00
76024;BME280;64719;52.124;6.226;2023-08-24T05:11:11;101818.47;;;16.39;100.00
76024;BME280;64719;52.124;6.226;2023-08-24T05:13:39;101824.00;;;16.56;100.00
76024;BME280;64719;52.124;6.226;2023-08-24T05:16:05;101823.00;;;16.62;100.00
76024;BME280;64719;52.124;6.226;2023-08-24T05:18:34;101812.44;;;16.54;100.00
76024;BME280;64719;52.124;6.226;2023-08-24T05:21:01;101807.66;;;16.61;100.00
76024;BME280;64719;52.124;6.226;2023-08-24T05:23:28;101811.31;;;16.66;100.00
76024;BME280;64719;52.124;6.226;2023-08-24T05:25:56;101806.31;;;16.80;100.00
76024;BME280;64719;52.124;6.226;2023-08-24T05:28:24;101820.97;;;16.85;100.00
76024;BME280;64719;52.124;6.226;2023-08-24T05:30:50;101816.72;;;16.94;100.00
76024;BME280;64719;52.124;6.226;2023-08-24T05:33:17;101815.97;;;16.99;100.00
76024;BME280;64719;52.124;6.226;2023-08-24T05:35:44;101818.97;;;17.14;100.00
76024;BME280;64719;52.124;6.226;2023-08-24T05:38:10;101803.78;;;17.44;100.00
76024;BME280;64719;52.124;6.226;2023-08-24T05:40:37;101799.25;;;18.46;100.00
76024;BME280;64719;52.124;6.226;2023-08-24T05:43:04;101787.41;;;18.72;100.00
76024;BME280;64719;52.124;6.226;2023-08-24T05:45:32;101784.78;;;18.87;100.00
76024;BME280;64719;52.124;6.226;2023-08-24T05:47:58;101786.38;;;18.83;100.00
76024;BME280;64719;52.124;6.226;2023-08-24T05:50:25;101782.66;;;19.36;100.00
76024;BME280;64719;52.124;6.226;2023-08-24T05:52:51;101777.69;;;19.38;100.00
76024;BME280;64719;52.124;6.226;2023-08-24T05:55:18;101779.31;;;19.29;100.00
76024;BME280;64719;52.124;6.226;2023-08-24T05:57:46;101777.25;;;20.38;100.00
76024;BME280;64719;52.124;6.226;2023-08-24T06:00:13;101771.50;;;22.37;100.00
76024;BME280;64719;52.124;6.226;2023-08-24T06:02:42;101765.97;;;22.75;100.00
76024;BME280;64719;52.124;6.226;2023-08-24T06:05:09;101754.44;;;23.25;100.00
76024;BME280;64719;52.124;6.226;2023-08-24T06:07:36;101742.22;;;23.74;100.00
76024;BME280;64719;52.124;6.226;2023-08-24T06:10:03;101742.81;;;24.63;100.00
76024;BME280;64719;52.124;6.226;2023-08-24T06:12:30;101732.88;;;24.25;100.00
76024;BME280;64719;52.124;6.226;2023-08-24T06:14:57;101729.59;;;24.42;100.00
76024;BME280;64719;52.124;6.226;2023-08-24T06:17:23;101720.44;;;24.41;100.00
76024;BME280;64719;52.124;6.226;2023-08-24T06:19:52;101727.88;;;25.37;100.00
76024;BME280;64719;52.124;6.226;2023-08-24T06:22:18;101724.69;;;25.44;100.00
76024;BME280;64719;52.124;6.226;2023-08-24T06:24:45;101713.13;;;25.64;100.00
76024;BME280;64719;52.124;6.226;2023-08-24T06:27:11;101706.34;;;25.16;100.00
76024;BME280;64719;52.124;6.226;2023-08-24T06:29:42;101699.75;;;25.39;100.00
76024;BME280;64719;52.124;6.226;2023-08-24T06:32:08;101698.94;;;26.36;100.00
76024;BME280;64719;52.124;6.226;2023-08-24T06:34:35;101699.19;;;26.26;100.00
76024;BME280;64719;52.124;6.226;2023-08-24T06:37:03;101690.94;;;26.88;100.00
76024;BME280;64719;52.124;6.226;2023-08-24T06:39:30;101699.47;;;26.03;100.00
76024;BME280;64719;52.124;6.226;2023-08-24T06:41:57;101691.66;;;26.27;100.00
76024;BME280;64719;52.124;6.226;2023-08-24T06:44:23;101690.97;;;26.43;100.00
76024;BME280;64719;52.124;6.226;2023-08-24T06:46:50;101682.91;;;26.86;100.00
76024;BME280;64719;52.124;6.226;2023-08-24T06:49:16;101680.69;;;27.05;100.00
76024;BME280;64719;52.124;6.226;2023-08-24T06:51:44;101685.78;;;27.42;100.00
76024;BME280;64719;52.124;6.226;2023-08-24T06:54:12;101682.28;;;28.18;100.00
76024;BME280;64719;52.124;6.226;2023-08-24T06:56:39;101684.50;;;27.65;100.00
76024;BME280;64719;52.124;6.226;2023-08-24T06:59:06;101685.22;;;28.56;100.00
76024;BME280;64719;52.124;6.226;2023-08-24T07:01:34;101678.00;;;28.55;100.00
76024;BME280;64719;52.124;6.226;2023-08-24T07:04:01;101681.13;;;29.17;100.00
76024;BME280;64719;52.124;6.226;2023-08-24T07:06:28;101675.97;;;29.27;100.00
76024;BME280;64719;52.124;6.226;2023-08-24T07:08:54;101678.50;;;28.48;100.00
76024;BME280;64719;52.124;6.226;2023-08-24T07:11:22;101671.53;;;28.80;100.00
76024;BME280;64719;52.124;6.226;2023-08-24T07:13:49;101673.09;;;28.98;100.00
76024;BME280;64719;52.124;6.226;2023-08-24T07:16:16;101656.75;;;28.71;100.00
76024;BME280;64719;52.124;6.226;2023-08-24T07:18:42;101656.25;;;30.68;100.00
76024;BME280;64719;52.124;6.226;2023-08-24T07:21:09;101667.13;;;31.50;92.98
76024;BME280;64719;52.124;6.226;2023-08-24T07:23:35;101663.09;;;30.79;96.17
76024;BME280;64719;52.124;6.226;2023-08-24T07:26:02;101659.34;;;30.75;98.05
76024;BME280;64719;52.124;6.226;2023-08-24T07:28:30;101660.63;;;30.77;96.11
76024;BME280;64719;52.124;6.226;2023-08-24T07:30:57;101656.69;;;30.90;97.08
76024;BME280;64719;52.124;6.226;2023-08-24T07:33:23;101650.88;;;32.07;89.63
76024;BME280;64719;52.124;6.226;2023-08-24T07:35:51;101638.94;;;30.54;94.31
76024;BME280;64719;52.124;6.226;2023-08-24T07:38:18;101639.50;;;31.28;93.25
76024;BME280;64719;52.124;6.226;2023-08-24T07:40:45;101640.78;;;30.17;97.06
76024;BME280;64719;52.124;6.226;2023-08-24T07:43:11;101647.56;;;31.05;91.49
76024;BME280;64719;52.124;6.226;2023-08-24T07:45:39;101651.41;;;31.73;89.00
76024;BME280;64719;52.124;6.226;2023-08-24T07:48:06;101659.94;;;32.28;85.26
76024;BME280;64719;52.124;6.226;2023-08-24T07:50:33;101657.34;;;31.96;91.34
76024;BME280;64719;52.124;6.226;2023-08-24T07:52:59;101664.34;;;33.15;78.73
76024;BME280;64719;52.124;6.226;2023-08-24T07:55:26;101670.31;;;32.00;87.40
76024;BME280;64719;52.124;6.226;2023-08-24T07:57:52;101667.44;;;32.95;81.94
76024;BME280;64719;52.124;6.226;2023-08-24T08:00:19;101660.94;;;33.37;78.96
76024;BME280;64719;52.124;6.226;2023-08-24T08:02:49;101655.47;;;32.39;79.69
76024;BME280;64719;52.124;6.226;2023-08-24T08:05:16;101657.63;;;33.35;78.80
76024;BME280;64719;52.124;6.226;2023-08-24T08:07:42;101655.53;;;33.83;73.02
76024;BME280;64719;52.124;6.226;2023-08-24T08:10:09;101649.25;;;32.61;80.79
76024;BME280;64719;52.124;6.226;2023-08-24T08:12:36;101639.75;;;32.81;85.85
76024;BME280;64719;52.124;6.226;2023-08-24T08:15:03;101653.28;;;33.07;84.01
76024;BME280;64719;52.124;6.226;2023-08-24T08:17:30;101651.44;;;32.68;77.75
76024;BME280;64719;52.124;6.226;2023-08-24T08:19:59;101649.56;;;34.41;72.33
76024;BME280;64719;52.124;6.226;2023-08-24T08:22:27;101656.03;;;34.64;69.85
76024;BME280;64719;52.124;6.226;2023-08-24T08:24:54;101658.38;;;34.59;70.06
76024;BME280;64719;52.124;6.226;2023-08-24T08:27:21;101648.81;;;34.25;69.13
76024;BME280;64719;52.124;6.226;2023-08-24T08:29:48;101652.84;;;34.05;69.60
76024;BME280;64719;52.124;6.226;2023-08-24T08:32:15;101642.97;;;33.61;73.45
76024;BME280;64719;52.124;6.226;2023-08-24T08:34:41;101637.72;;;32.66;79.54
76024;BME280;64719;52.124;6.226;2023-08-24T08:37:09;101645.97;;;32.32;85.90
76024;BME280;64719;52.124;6.226;2023-08-24T08:39:36;101638.00;;;34.08;70.33
76024;BME280;64719;52.124;6.226;2023-08-24T08:42:03;101630.47;;;32.81;75.46
76024;BME280;64719;52.124;6.226;2023-08-24T08:44:30;101633.09;;;32.31;80.80
76024;BME280;64719;52.124;6.226;2023-08-24T08:46:58;101630.47;;;31.70;84.99
76024;BME280;64719;52.124;6.226;2023-08-24T08:49:25;101631.19;;;31.67;86.64
76024;BME280;64719;52.124;6.226;2023-08-24T08:51:52;101626.25;;;30.68;93.45
76024;BME280;64719;52.124;6.226;2023-08-24T08:54:20;101606.47;;;30.97;91.63
76024;BME280;64719;52.124;6.226;2023-08-24T08:56:47;101604.63;;;32.05;85.07
76024;BME280;64719;52.124;6.226;2023-08-24T08:59:14;101598.41;;;31.08;93.90
76024;BME280;64719;52.124;6.226;2023-08-24T09:01:41;101601.66;;;31.34;88.32
76024;BME280;64719;52.124;6.226;2023-08-24T09:04:09;101582.94;;;31.26;89.69
76024;BME280;64719;52.124;6.226;2023-08-24T09:06:37;101597.22;;;30.85;92.33
76024;BME280;64719;52.124;6.226;2023-08-24T09:09:04;101587.19;;;30.84;97.86
76024;BME280;64719;52.124;6.226;2023-08-24T09:11:33;101581.06;;;31.94;91.18
76024;BME280;64719;52.124;6.226;2023-08-24T09:13:59;101577.03;;;31.67;83.30
76024;BME280;64719;52.124;6.226;2023-08-24T09:16:29;101572.59;;;32.95;79.57
76024;BME280;64719;52.124;6.226;2023-08-24T09:18:56;101566.84;;;31.35;86.51
76024;BME280;64719;52.124;6.226;2023-08-24T09:21:23;101562.47;;;31.89;90.34
76024;BME280;64719;52.124;6.226;2023-08-24T09:23:52;101557.44;;;32.53;78.72
76024;BME280;64719;52.124;6.226;2023-08-24T09:26:27;101552.19;;;32.36;78.66
76024;BME280;64719;52.124;6.226;2023-08-24T09:28:55;101541.94;;;32.75;75.72
76024;BME280;64719;52.124;6.226;2023-08-24T09:31:22;101544.41;;;33.26;75.33
76024;BME280;64719;52.124;6.226;2023-08-24T09:33:49;101545.66;;;33.64;70.56
76024;BME280;64719;52.124;6.226;2023-08-24T09:36:16;101542.31;;;32.73;76.58
76024;BME280;64719;52.124;6.226;2023-08-24T09:38:46;101536.94;;;33.69;72.36
76024;BME280;64719;52.124;6.226;2023-08-24T09:41:16;101524.63;;;35.08;65.33
76024;BME280;64719;52.124;6.226;2023-08-24T09:43:42;101519.63;;;36.20;59.76
76024;BME280;64719;52.124;6.226;2023-08-24T09:46:10;101515.84;;;36.06;61.36
76024;BME280;64719;52.124;6.226;2023-08-24T09:48:37;101502.53;;;36.10;51.82
76024;BME280;64719;52.124;6.226;2023-08-24T09:51:04;101488.41;;;36.10;59.01
76024;BME280;64719;52.124;6.226;2023-08-24T09:53:33;101481.13;;;35.72;56.59
76024;BME280;64719;52.124;6.226;2023-08-24T09:56:04;101480.38;;;34.64;63.50
76024;BME280;64719;52.124;6.226;2023-08-24T09:58:32;101489.50;;;33.52;66.88
76024;BME280;64719;52.124;6.226;2023-08-24T10:01:01;101478.66;;;33.00;77.97
76024;BME280;64719;52.124;6.226;2023-08-24T10:03:32;101476.13;;;31.19;86.32
76024;BME280;64719;52.124;6.226;2023-08-24T10:06:03;101463.75;;;32.34;84.85
76024;BME280;64719;52.124;6.226;2023-08-24T10:08:35;101472.25;;;32.84;87.01
76024;BME280;64719;52.124;6.226;2023-08-24T10:11:03;101473.19;;;32.10;84.12
76024;BME280;64719;52.124;6.226;2023-08-24T10:13:43;101486.06;;;32.27;82.95
76024;BME280;64719;52.124;6.226;2023-08-24T10:16:12;101505.59;;;32.66;76.55
76024;BME280;64719;52.124;6.226;2023-08-24T10:18:41;101513.16;;;31.36;82.96
76024;BME280;64719;52.124;6.226;2023-08-24T10:21:08;101506.16;;;30.46;95.51
76024;BME280;64719;52.124;6.226;2023-08-24T10:23:35;101487.00;;;30.24;98.00
76024;BME280;64719;52.124;6.226;2023-08-24T10:26:03;101493.81;;;30.02;100.00
76024;BME280;64719;52.124;6.226;2023-08-24T10:28:30;101491.22;;;30.30;100.00
76024;BME280;64719;52.124;6.226;2023-08-24T10:30:59;101481.13;;;30.05;100.00
76024;BME280;64719;52.124;6.226;2023-08-24T10:33:26;101469.50;;;29.70;100.00
76024;BME280;64719;52.124;6.226;2023-08-24T10:35:55;101470.97;;;30.00;100.00
76024;BME280;64719;52.124;6.226;2023-08-24T10:38:25;101470.38;;;29.62;100.00
76024;BME280;64719;52.124;6.226;2023-08-24T10:40:53;101460.06;;;29.75;100.00
76024;BME280;64719;52.124;6.226;2023-08-24T10:43:20;101452.25;;;29.80;100.00
76024;BME280;64719;52.124;6.226;2023-08-24T10:45:54;101443.03;;;30.37;100.00
76024;BME280;64719;52.124;6.226;2023-08-24T10:48:22;101436.38;;;30.29;100.00
76024;BME280;64719;52.124;6.226;2023-08-24T10:53:42;101446.19;;;30.47;97.51
76024;BME280;64719;52.124;6.226;2023-08-24T10:56:10;101423.19;;;31.17;95.98
76024;BME280;64719;52.124;6.226;2023-08-24T10:58:37;101415.34;;;30.11;100.00
76024;BME280;64719;52.124;6.226;2023-08-24T11:01:04;101402.19;;;29.67;100.00
76024;BME280;64719;52.124;6.226;2023-08-24T11:03:31;101412.06;;;29.32;100.00
76024;BME280;64719;52.124;6.226;2023-08-24T11:05:58;101414.00;;;28.70;100.00
76024;BME280;64719;52.124;6.226;2023-08-24T11:11:22;101422.56;;;28.35;100.00
76024;BME280;64719;52.124;6.226;2023-08-24T11:14:15;101431.97;;;28.31;100.00
76024;BME280;64719;52.124;6.226;2023-08-24T11:16:45;101438.84;;;27.79;100.00
76024;BME280;64719;52.124;6.226;2023-08-24T11:19:13;101446.94;;;27.55;100.00
76024;BME280;64719;52.124;6.226;2023-08-24T11:21:40;101445.66;;;27.27;100.00
76024;BME280;64719;52.124;6.226;2023-08-24T11:24:08;101436.94;;;27.03;100.00
76024;BME280;64719;52.124;6.226;2023-08-24T11:26:39;101444.16;;;27.21;100.00
76024;BME280;64719;52.124;6.226;2023-08-24T11:29:06;101442.97;;;26.79;100.00
76024;BME280;64719;52.124;6.226;2023-08-24T11:31:33;101435.41;;;26.62;100.00
76024;BME280;64719;52.124;6.226;2023-08-24T11:34:00;101440.09;;;26.45;100.00
76024;BME280;64719;52.124;6.226;2023-08-24T11:36:28;101448.69;;;26.26;100.00
76024;BME280;64719;52.124;6.226;2023-08-24T11:38:57;101442.66;;;26.33;100.00
76024;BME280;64719;52.124;6.226;2023-08-24T11:41:24;101448.94;;;26.47;100.00
76024;BME280;64719;52.124;6.226;2023-08-24T11:44:00;101442.22;;;26.48;100.00
76024;BME280;64719;52.124;6.226;2023-08-24T11:46:28;101432.47;;;26.67;100.00
76024;BME280;64719;52.124;6.226;2023-08-24T11:48:57;101432.34;;;26.98;100.00
76024;BME280;64719;52.124;6.226;2023-08-24T11:51:24;101421.56;;;27.39;100.00
76024;BME280;64719;52.124;6.226;2023-08-24T11:53:51;101419.25;;;27.50;100.00
76024;BME280;64719;52.124;6.226;2023-08-24T11:56:17;101429.78;;;27.99;100.00
76024;BME280;64719;52.124;6.226;2023-08-24T11:58:48;101407.41;;;28.16;100.00
76024;BME280;64719;52.124;6.226;2023-08-24T12:01:17;101400.84;;;28.41;100.00
76024;BME280;64719;52.124;6.226;2023-08-24T12:03:44;101397.09;;;28.37;100.00
76024;BME280;64719;52.124;6.226;2023-08-24T12:06:12;101386.19;;;28.23;100.00
76024;BME280;64719;52.124;6.226;2023-08-24T12:08:40;101376.06;;;28.10;100.00
76024;BME280;64719;52.124;6.226;2023-08-24T12:11:12;101370.00;;;28.08;100.00
76024;BME280;64719;52.124;6.226;2023-08-24T12:13:42;101360.03;;;28.28;100.00
76024;BME280;64719;52.124;6.226;2023-08-24T12:16:10;101361.41;;;28.13;100.00
76024;BME280;64719;52.124;6.226;2023-08-24T12:18:47;101365.91;;;28.35;100.00
76024;BME280;64719;52.124;6.226;2023-08-24T12:21:14;101361.06;;;28.23;100.00
76024;BME280;64719;52.124;6.226;2023-08-24T12:23:40;101358.94;;;28.20;100.00
76024;BME280;64719;52.124;6.226;2023-08-24T12:26:07;101357.69;;;28.09;100.00
76024;BME280;64719;52.124;6.226;2023-08-24T12:28:34;101353.16;;;27.88;100.00
76024;BME280;64719;52.124;6.226;2023-08-24T12:31:00;101346.47;;;27.89;100.00
76024;BME280;64719;52.124;6.226;2023-08-24T12:33:29;101345.94;;;28.24;100.00
76024;BME280;64719;52.124;6.226;2023-08-24T12:35:58;101347.25;;;28.27;100.00
76024;BME280;64719;52.124;6.226;2023-08-24T12:38:25;101342.84;;;27.88;100.00
76024;BME280;64719;52.124;6.226;2023-08-24T12:40:52;101339.88;;;27.93;100.00
76024;BME280;64719;52.124;6.226;2023-08-24T12:43:19;101338.56;;;27.82;100.00
76024;BME280;64719;52.124;6.226;2023-08-24T12:45:46;101325.88;;;28.02;100.00
76024;BME280;64719;52.124;6.226;2023-08-24T12:48:12;101328.78;;;27.68;100.00
76024;BME280;64719;52.124;6.226;2023-08-24T12:50:39;101326.09;;;27.88;100.00